createdAt,value
2023-02-03T00:00:44.639Z,28.34
2023-02-03T00:03:34.170Z,28.16
2023-02-03T00:06:03.407Z,28.62
2023-02-03T00:08:31.925Z,28.59
2023-02-03T00:11:00.848Z,28.70
2023-02-03T00:13:29.070Z,28.52
2023-02-03T00:15:57.738Z,28.43
2023-02-03T00:18:26.384Z,28.27
2023-02-03T00:20:56.338Z,28.23
2023-02-03T00:23:25.982Z,28.39
2023-02-03T00:25:54.550Z,28.27
2023-02-03T00:28:22.877Z,28.44
2023-02-03T00:30:54.217Z,28.46
2023-02-03T00:33:22.612Z,28.29
2023-02-03T00:35:52.200Z,28.30
2023-02-03T00:38:22.139Z,28.19
2023-02-03T00:40:54.060Z,27.90
2023-02-03T00:43:22.579Z,28.15
2023-02-03T00:45:51.420Z,28.07
2023-02-03T00:48:20.155Z,28.03
2023-02-03T00:50:48.963Z,27.88
2023-02-03T00:53:17.367Z,27.95
2023-02-03T00:55:47.634Z,28.00
2023-02-03T00:58:15.989Z,27.89
2023-02-03T01:00:44.639Z,27.74
2023-02-03T01:03:12.979Z,27.80
2023-02-03T01:05:41.692Z,27.84
2023-02-03T01:08:10.141Z,27.81
2023-02-03T01:10:40.008Z,28.01
2023-02-03T01:13:09.966Z,27.68
2023-02-03T01:15:38.488Z,27.58
2023-02-03T01:18:06.930Z,27.47
2023-02-03T01:20:36.581Z,27.62
2023-02-03T01:23:05.271Z,27.36
2023-02-03T01:25:33.772Z,27.30
2023-02-03T01:28:02.217Z,27.42
2023-02-03T01:30:32.329Z,27.51
2023-02-03T01:33:00.660Z,27.63
2023-02-03T01:35:29.219Z,27.51
2023-02-03T01:37:57.570Z,27.42
2023-02-03T01:40:26.447Z,27.37
2023-02-03T01:42:54.951Z,27.47
2023-02-03T01:45:23.812Z,27.71
2023-02-03T01:47:55.409Z,27.37
2023-02-03T01:50:27.113Z,27.11
2023-02-03T01:53:00.881Z,26.98
2023-02-03T01:55:31.888Z,27.36
2023-02-03T01:58:03.284Z,27.00
2023-02-03T02:00:32.047Z,27.51
2023-02-03T02:03:04.551Z,27.07
2023-02-03T02:05:36.733Z,27.32
2023-02-03T02:08:06.111Z,27.32
2023-02-03T02:10:35.214Z,27.29
2023-02-03T02:13:04.973Z,27.41
2023-02-03T02:15:39.958Z,27.16
2023-02-03T02:18:21.898Z,27.17
2023-02-03T02:21:19.769Z,26.96
2023-02-03T02:24:17.186Z,27.21
2023-02-03T02:26:53.291Z,27.33
2023-02-03T02:30:06.963Z,26.90
2023-02-03T02:33:04.136Z,27.06
2023-02-03T02:35:44.416Z,27.18
2023-02-03T02:38:17.532Z,27.41
2023-02-03T02:40:51.876Z,27.34
2023-02-03T02:43:22.738Z,27.60
2023-02-03T02:45:52.395Z,27.63
2023-02-03T02:48:25.760Z,27.67
2023-02-03T02:50:56.767Z,27.98
2023-02-03T02:53:26.120Z,26.85
2023-02-03T02:55:55.029Z,27.88
2023-02-03T02:58:24.108Z,28.38
2023-02-03T03:00:52.663Z,28.41
2023-02-03T03:03:24.482Z,28.67
2023-02-03T03:05:55.650Z,28.60
2023-02-03T03:08:27.066Z,28.62
2023-02-03T03:10:56.312Z,28.60
2023-02-03T03:13:29.396Z,28.54
2023-02-03T03:15:59.580Z,28.83
2023-02-03T03:18:32.271Z,28.28
2023-02-03T03:21:06.222Z,28.72
2023-02-03T03:23:39.822Z,28.49
2023-02-03T03:26:13.269Z,28.22
2023-02-03T03:28:47.255Z,28.33
2023-02-03T03:31:16.095Z,28.94
2023-02-03T03:33:46.692Z,28.83
2023-02-03T03:36:21.339Z,28.75
2023-02-03T03:38:53.754Z,28.74
2023-02-03T03:41:28.435Z,28.53
2023-02-03T03:43:59.177Z,28.57
2023-02-03T03:46:30.360Z,28.63
2023-02-03T03:49:02.898Z,28.32
2023-02-03T03:51:33.927Z,28.18
2023-02-03T03:54:06.462Z,28.20
2023-02-03T03:56:40.415Z,27.94
2023-02-03T03:59:10.425Z,28.16
2023-02-03T04:01:39.926Z,28.24
2023-02-03T04:04:11.763Z,28.06
2023-02-03T04:06:40.846Z,28.07
2023-02-03T04:09:09.546Z,28.02
2023-02-03T04:11:56.094Z,27.99
2023-02-03T04:14:24.883Z,28.07
2023-02-03T04:16:53.224Z,28.16
2023-02-03T04:19:23.274Z,28.04
2023-02-03T04:21:51.825Z,28.20
2023-02-03T04:24:20.551Z,28.44
2023-02-03T04:26:48.984Z,28.38
2023-02-03T04:29:17.691Z,28.32
2023-02-03T04:31:46.047Z,28.42
2023-02-03T04:34:15.198Z,28.61
2023-02-03T04:36:44.818Z,28.61
2023-02-03T04:39:13.711Z,28.79
2023-02-03T04:41:43.056Z,28.74
2023-02-03T04:44:11.813Z,28.47
2023-02-03T04:46:40.261Z,28.69
2023-02-03T04:49:11.736Z,28.74
2023-02-03T04:51:40.194Z,28.53
2023-02-03T04:54:10.446Z,28.59
2023-02-03T04:56:39.185Z,28.53
2023-02-03T04:59:07.974Z,28.85
2023-02-03T05:01:36.267Z,28.87
2023-02-03T05:04:05.064Z,28.80
2023-02-03T05:06:33.444Z,28.86
2023-02-03T05:09:02.161Z,28.83
2023-02-03T05:11:32.472Z,28.77
2023-02-03T05:14:01.065Z,28.88
2023-02-03T05:16:29.690Z,28.72
2023-02-03T05:18:58.396Z,28.97
2023-02-03T05:21:26.897Z,28.68
2023-02-03T05:23:55.624Z,28.81
2023-02-03T05:26:24.100Z,28.68
2023-02-03T05:28:56.100Z,28.75
2023-02-03T05:31:25.109Z,29.01
2023-02-03T05:33:53.761Z,29.00
2023-02-03T05:36:22.412Z,29.09
2023-02-03T05:38:51.236Z,29.16
2023-02-03T05:41:37.023Z,29.06
2023-02-03T05:44:07.489Z,29.06
2023-02-03T05:46:35.932Z,29.04
2023-02-03T05:49:04.685Z,29.12
2023-02-03T05:51:33.064Z,29.02
2023-02-03T05:54:02.089Z,29.19
2023-02-03T05:56:30.427Z,29.15
2023-02-03T05:58:59.415Z,29.11
2023-02-03T06:01:29.244Z,29.00
2023-02-03T06:03:58.068Z,28.95
2023-02-03T06:06:27.472Z,29.26
2023-02-03T06:08:57.193Z,29.41
2023-02-03T06:11:25.598Z,29.58
2023-02-03T06:13:54.263Z,29.33
2023-02-03T06:16:25.077Z,29.47
2023-02-03T06:18:55.824Z,29.30
2023-02-03T06:21:24.258Z,29.30
2023-02-03T06:23:53.131Z,29.26
2023-02-03T06:26:21.683Z,29.41
2023-02-03T06:28:50.771Z,29.15
2023-02-03T06:31:19.242Z,29.17
2023-02-03T06:33:47.895Z,29.16
2023-02-03T06:36:17.748Z,28.92
2023-02-03T06:38:46.301Z,29.04
2023-02-03T06:41:15.098Z,28.94
2023-02-03T06:43:43.911Z,28.99
2023-02-03T06:46:12.751Z,28.76
2023-02-03T06:48:41.577Z,28.61
2023-02-03T06:51:09.920Z,28.64
2023-02-03T06:53:40.263Z,28.53
2023-02-03T06:56:08.978Z,28.58
2023-02-03T06:58:38.806Z,28.49
2023-02-03T07:01:07.344Z,28.53
2023-02-03T07:03:36.012Z,28.29
2023-02-03T07:06:05.291Z,28.42
2023-02-03T07:08:34.364Z,28.24
2023-02-03T07:11:04.212Z,28.08
2023-02-03T07:13:32.977Z,28.12
2023-02-03T07:16:01.617Z,27.87
2023-02-03T07:18:46.268Z,27.82
2023-02-03T07:21:15.866Z,27.53
2023-02-03T07:23:44.862Z,27.39
2023-02-03T07:26:14.875Z,27.19
2023-02-03T07:28:43.498Z,27.08
2023-02-03T07:31:12.052Z,26.82
2023-02-03T07:33:40.765Z,27.02
2023-02-03T07:36:10.041Z,26.80
2023-02-03T07:38:39.238Z,26.75
2023-02-03T07:41:07.923Z,26.59
2023-02-03T07:43:37.896Z,26.60
2023-02-03T07:46:06.375Z,26.45
2023-02-03T07:48:35.287Z,26.71
2023-02-03T07:51:03.542Z,26.24
2023-02-03T07:53:32.298Z,26.31
2023-02-03T07:56:02.214Z,26.31
2023-02-03T07:58:31.272Z,26.28
2023-02-03T08:01:01.693Z,26.37
2023-02-03T08:03:30.532Z,26.07
2023-02-03T08:05:59.081Z,25.89
2023-02-03T08:08:27.739Z,25.96
2023-02-03T08:10:56.758Z,26.01
2023-02-03T08:13:25.430Z,25.78
2023-02-03T08:15:53.938Z,25.71
2023-02-03T08:18:24.314Z,25.38
2023-02-03T08:20:52.685Z,25.39
2023-02-03T08:23:21.530Z,25.49
2023-02-03T08:25:52.561Z,25.16
2023-02-03T08:28:21.699Z,25.36
2023-02-03T08:30:50.472Z,25.21
2023-02-03T08:33:19.089Z,25.18
2023-02-03T08:35:50.338Z,25.45
2023-02-03T08:38:19.155Z,25.73
2023-02-03T08:40:47.501Z,25.72
2023-02-03T08:43:16.532Z,26.21
2023-02-03T08:45:44.934Z,26.16
2023-02-03T08:48:13.637Z,26.97
2023-02-03T08:50:44.594Z,27.67
2023-02-03T08:53:14.534Z,28.28
2023-02-03T08:55:42.939Z,29.08
2023-02-03T08:58:11.646Z,29.54
2023-02-03T09:00:40.167Z,30.01
2023-02-03T09:03:08.818Z,29.90
2023-02-03T09:05:37.794Z,30.28
2023-02-03T09:08:07.198Z,30.53
2023-02-03T09:10:37.615Z,30.57
2023-02-03T09:13:06.111Z,30.83
2023-02-03T09:15:34.402Z,30.60
2023-02-03T09:18:03.327Z,30.36
2023-02-03T09:20:31.984Z,30.87
2023-02-03T09:23:01.138Z,31.04
2023-02-03T09:25:29.376Z,31.26
2023-02-03T09:28:00.053Z,31.39
2023-02-03T09:30:28.716Z,32.14
2023-02-03T09:32:59.051Z,32.34
2023-02-03T09:35:29.544Z,31.91
2023-02-03T09:38:00.813Z,31.98
2023-02-03T09:40:33.349Z,32.00
2023-02-03T09:43:15.550Z,32.28
2023-02-03T09:45:44.229Z,32.76
2023-02-03T09:48:15.672Z,32.70
2023-02-03T09:50:45.092Z,33.78
2023-02-03T09:53:23.142Z,33.41
2023-02-03T09:55:51.934Z,34.47
2023-02-03T09:58:23.281Z,34.04
2023-02-03T10:00:52.922Z,33.52
2023-02-03T10:03:27.775Z,34.31
2023-02-03T10:06:19.740Z,34.02
2023-02-03T10:08:58.297Z,34.05
2023-02-03T10:11:42.409Z,34.68
2023-02-03T10:14:24.325Z,34.15
2023-02-03T10:17:04.178Z,34.04
2023-02-03T10:19:40.420Z,34.97
2023-02-03T10:22:14.368Z,34.74
2023-02-03T10:24:46.592Z,35.26
2023-02-03T10:27:19.123Z,35.42
2023-02-03T10:29:54.609Z,35.21
2023-02-03T10:32:25.767Z,35.43
2023-02-03T10:34:54.541Z,36.18
2023-02-03T10:37:30.035Z,35.35
2023-02-03T10:40:00.357Z,35.67
2023-02-03T10:42:50.368Z,36.08
2023-02-03T10:45:21.606Z,35.51
2023-02-03T10:47:52.807Z,35.03
2023-02-03T10:50:23.931Z,35.42
2023-02-03T10:53:23.467Z,34.69
2023-02-03T10:56:00.703Z,35.85
2023-02-03T10:58:31.379Z,35.68
2023-02-03T11:01:09.140Z,35.47
2023-02-03T11:03:39.309Z,35.49
2023-02-03T11:06:11.077Z,35.16
2023-02-03T11:08:40.931Z,35.43
2023-02-03T11:11:10.859Z,35.67
2023-02-03T11:13:39.487Z,35.65
2023-02-03T11:16:15.467Z,35.49
2023-02-03T11:18:48.283Z,35.97
2023-02-03T11:21:19.143Z,35.94
2023-02-03T11:23:50.773Z,35.94
2023-02-03T11:26:21.740Z,36.71
2023-02-03T11:28:52.439Z,36.25
2023-02-03T11:31:25.528Z,36.14
2023-02-03T11:33:57.067Z,35.96
2023-02-03T11:36:28.494Z,36.25
2023-02-03T11:39:20.714Z,35.23
2023-02-03T11:41:50.137Z,36.26
2023-02-03T11:44:21.555Z,36.04
2023-02-03T11:46:54.782Z,36.06
2023-02-03T11:49:56.553Z,35.43
2023-02-03T11:52:38.070Z,35.88
2023-02-03T11:55:14.859Z,36.34
2023-02-03T11:57:48.416Z,36.81
2023-02-03T12:00:29.280Z,36.23
2023-02-03T12:03:22.462Z,36.42
2023-02-03T12:06:02.764Z,36.79
2023-02-03T12:08:45.070Z,36.72
2023-02-03T12:11:24.134Z,36.78
2023-02-03T12:14:02.371Z,36.88
2023-02-03T12:16:57.700Z,37.03
2023-02-03T12:19:36.361Z,37.87
2023-02-03T12:22:10.608Z,37.94
2023-02-03T12:24:46.613Z,38.13
2023-02-03T12:27:26.670Z,38.32
2023-02-03T12:29:59.287Z,38.52
2023-02-03T12:32:33.695Z,38.22
2023-02-03T12:35:15.281Z,38.34
2023-02-03T12:37:45.429Z,37.38
2023-02-03T12:40:17.745Z,38.64
2023-02-03T12:42:49.792Z,39.02
2023-02-03T12:45:21.161Z,39.01
2023-02-03T12:47:53.211Z,38.78
2023-02-03T12:50:26.068Z,38.81
2023-02-03T12:52:57.278Z,39.20
2023-02-03T12:55:32.572Z,39.00
2023-02-03T12:58:04.305Z,39.50
2023-02-03T13:00:40.406Z,39.20
2023-02-03T13:03:20.286Z,38.77
2023-02-03T13:05:55.532Z,39.20
2023-02-03T13:08:29.829Z,39.44
2023-02-03T13:11:05.472Z,39.18
2023-02-03T13:13:39.172Z,39.17
2023-02-03T13:16:09.177Z,39.66
2023-02-03T13:18:40.523Z,39.36
2023-02-03T13:21:12.063Z,39.22
2023-02-03T13:23:43.557Z,38.14
2023-02-03T13:26:30.853Z,38.42
2023-02-03T13:29:12.494Z,38.93
2023-02-03T13:31:49.599Z,39.52
2023-02-03T13:34:36.758Z,38.67
2023-02-03T13:37:15.323Z,39.47
2023-02-03T13:40:18.500Z,38.88
2023-02-03T13:42:49.984Z,39.35
2023-02-03T13:45:27.035Z,39.27
2023-02-03T13:47:58.242Z,39.67
2023-02-03T13:50:29.270Z,39.68
2023-02-03T13:53:01.766Z,39.67
2023-02-03T13:55:34.523Z,39.99
2023-02-03T13:58:03.309Z,41.20
2023-02-03T14:01:20.792Z,38.93
2023-02-03T14:03:50.379Z,40.12
2023-02-03T14:06:59.638Z,38.83
2023-02-03T14:09:43.353Z,39.36
2023-02-03T14:12:37.262Z,39.86
2023-02-03T14:15:21.221Z,39.37
2023-02-03T14:18:02.128Z,39.57
2023-02-03T14:20:52.808Z,39.35
2023-02-03T14:23:26.719Z,40.06
2023-02-03T14:25:59.903Z,40.18
2023-02-03T14:28:32.898Z,39.82
2023-02-03T14:31:12.712Z,39.77
2023-02-03T14:34:18.134Z,39.63
2023-02-03T14:36:53.145Z,39.57
2023-02-03T14:39:44.472Z,38.90
2023-02-03T14:42:21.531Z,38.65
2023-02-03T14:45:00.013Z,39.52
2023-02-03T14:47:42.403Z,39.74
2023-02-03T14:50:21.721Z,39.10
2023-02-03T14:53:02.668Z,39.26
2023-02-03T14:55:46.439Z,39.52
2023-02-03T14:58:25.111Z,39.37
2023-02-03T15:00:55.146Z,40.35
2023-02-03T15:03:31.427Z,39.80
2023-02-03T15:06:03.508Z,40.37
2023-02-03T15:08:36.141Z,40.35
2023-02-03T15:11:27.380Z,39.63
2023-02-03T15:13:59.119Z,39.85
2023-02-03T15:16:28.101Z,40.32
2023-02-03T15:18:59.970Z,40.00
2023-02-03T15:21:28.249Z,40.19
2023-02-03T15:23:57.070Z,40.03
2023-02-03T15:26:27.157Z,40.37
2023-02-03T15:28:58.952Z,39.90
2023-02-03T15:31:34.034Z,39.50
2023-02-03T15:34:07.997Z,39.58
2023-02-03T15:36:43.373Z,39.56
2023-02-03T15:39:20.129Z,39.50
2023-02-03T15:41:51.025Z,40.28
2023-02-03T15:44:27.639Z,39.50
2023-02-03T15:46:56.378Z,39.98
2023-02-03T15:49:28.911Z,39.50
2023-02-03T15:52:00.243Z,39.85
2023-02-03T15:54:40.582Z,39.72
2023-02-03T15:57:11.726Z,40.26
2023-02-03T15:59:43.569Z,40.42
2023-02-03T16:02:17.974Z,40.01
2023-02-03T16:04:46.987Z,40.77
2023-02-03T16:07:18.584Z,40.00
2023-02-03T16:09:47.477Z,39.82
2023-02-03T16:12:20.512Z,39.62
2023-02-03T16:14:51.103Z,39.79
2023-02-03T16:17:28.954Z,38.87
2023-02-03T16:20:23.132Z,38.57
2023-02-03T16:23:13.467Z,38.34
2023-02-03T16:25:42.370Z,39.72
2023-02-03T16:28:34.990Z,38.99
2023-02-03T16:31:29.735Z,38.47
2023-02-03T16:34:15.677Z,39.76
2023-02-03T16:37:02.658Z,39.24
2023-02-03T16:39:49.043Z,39.57
2023-02-03T16:42:36.903Z,39.21
2023-02-03T16:45:25.437Z,39.36
2023-02-03T16:48:13.515Z,39.37
2023-02-03T16:51:08.330Z,38.83
2023-02-03T16:53:37.439Z,39.86
2023-02-03T16:56:06.499Z,39.44
2023-02-03T16:58:35.782Z,39.51
2023-02-03T17:01:05.776Z,39.25
2023-02-03T17:03:37.389Z,38.95
2023-02-03T17:06:07.787Z,39.23
2023-02-03T17:08:37.202Z,39.29
2023-02-03T17:11:07.604Z,39.52
2023-02-03T17:13:36.948Z,39.31
2023-02-03T17:16:10.910Z,38.88
2023-02-03T17:18:41.243Z,39.51
2023-02-03T17:21:11.249Z,39.31
2023-02-03T17:23:40.297Z,39.50
2023-02-03T17:26:08.808Z,39.41
2023-02-03T17:28:37.531Z,39.67
2023-02-03T17:31:08.017Z,39.16
2023-02-03T17:33:36.735Z,39.36
2023-02-03T17:36:09.933Z,39.02
2023-02-03T17:55:21.329Z,39.25
2023-02-03T17:57:49.603Z,39.39
2023-02-03T18:00:19.109Z,39.59
2023-02-03T18:02:50.991Z,39.01
2023-02-03T18:05:20.445Z,39.55
2023-02-03T18:07:50.466Z,39.36
2023-02-03T18:10:19.424Z,39.67
2023-02-03T18:12:47.875Z,39.46
2023-02-03T18:15:16.862Z,39.27
2023-02-03T18:17:45.248Z,39.25
2023-02-03T18:20:14.910Z,39.49
2023-02-03T18:22:46.112Z,39.41
2023-02-03T18:25:17.381Z,39.39
2023-02-03T18:27:45.908Z,39.50
2023-02-03T18:30:18.006Z,39.59
2023-02-03T18:32:47.454Z,39.39
2023-02-03T18:35:17.461Z,39.60
2023-02-03T18:37:46.139Z,39.56
2023-02-03T18:40:16.990Z,39.57
2023-02-03T18:42:45.560Z,39.55
2023-02-03T18:45:14.425Z,39.64
2023-02-03T18:47:42.817Z,39.64
2023-02-03T18:50:12.013Z,39.50
2023-02-03T18:52:40.704Z,39.64
2023-02-03T18:55:10.431Z,39.38
2023-02-03T18:57:40.403Z,39.31
2023-02-03T19:00:10.871Z,39.40
2023-02-03T19:02:39.288Z,39.49
2023-02-03T19:05:10.088Z,39.39
2023-02-03T19:07:38.931Z,39.35
2023-02-03T19:10:08.125Z,39.11
2023-02-03T19:12:36.407Z,39.30
2023-02-03T19:15:08.814Z,39.23
2023-02-03T19:17:38.274Z,39.14
2023-02-03T19:20:07.954Z,39.49
2023-02-03T19:22:36.354Z,39.33
2023-02-03T19:25:05.278Z,39.58
2023-02-03T19:27:33.689Z,39.41
2023-02-03T19:30:02.465Z,39.47
2023-02-03T19:32:32.403Z,39.41
2023-02-03T19:35:01.197Z,39.72
2023-02-03T19:37:29.743Z,39.36
2023-02-03T19:39:58.547Z,39.34
2023-02-03T19:42:27.175Z,39.55
2023-02-03T19:44:56.597Z,39.55
2023-02-03T19:47:25.187Z,39.37
2023-02-03T19:49:55.268Z,39.19
2023-02-03T19:52:23.644Z,39.48
2023-02-03T19:54:54.120Z,39.98
2023-02-03T19:57:22.541Z,39.67
2023-02-03T19:59:51.277Z,39.72
2023-02-03T20:02:20.240Z,39.82
2023-02-03T20:04:50.283Z,39.71
2023-02-03T20:07:20.313Z,39.37
2023-02-03T20:09:49.385Z,39.79
2023-02-03T20:12:18.100Z,39.82
2023-02-03T20:14:46.648Z,39.89
2023-02-03T20:17:15.369Z,39.88
2023-02-03T20:19:44.097Z,39.76
2023-02-03T20:22:12.624Z,39.68
2023-02-03T20:24:42.726Z,39.49
2023-02-03T20:27:11.082Z,39.81
2023-02-03T20:29:40.019Z,39.66
2023-02-03T20:32:09.496Z,39.74
2023-02-03T20:34:38.460Z,39.61
2023-02-03T20:37:08.113Z,39.88
2023-02-03T20:39:36.931Z,39.59
2023-02-03T20:42:12.602Z,38.63
2023-02-03T20:44:42.400Z,39.30
2023-02-03T20:47:12.100Z,38.94
2023-02-03T20:49:40.943Z,39.04
2023-02-03T20:52:14.537Z,38.50
2023-02-03T20:54:43.382Z,39.20
2023-02-03T20:57:15.027Z,39.08
2023-02-03T20:59:44.766Z,38.87
2023-02-03T21:02:23.192Z,38.52
2023-02-03T21:05:00.544Z,39.35
2023-02-03T21:07:31.358Z,38.75
2023-02-03T21:10:01.701Z,39.03
2023-02-03T21:12:31.725Z,38.96
2023-02-03T21:15:00.323Z,39.55
2023-02-03T21:17:28.707Z,39.57
2023-02-03T21:19:57.774Z,39.41
2023-02-03T21:22:27.677Z,39.35
2023-02-03T21:24:57.763Z,39.28
2023-02-03T21:27:32.534Z,38.68
2023-02-03T21:30:03.245Z,39.03
2023-02-03T21:32:36.225Z,39.13
2023-02-03T21:35:18.953Z,39.19
2023-02-03T21:37:47.764Z,39.50
2023-02-03T21:40:27.355Z,38.53
2023-02-03T21:42:58.014Z,39.24
2023-02-03T21:45:36.761Z,38.45
2023-02-03T21:48:39.882Z,38.31
2023-02-03T21:51:16.283Z,38.55
2023-02-03T21:53:49.330Z,38.92
2023-02-03T21:56:20.074Z,39.34
2023-02-03T21:58:50.926Z,39.04
2023-02-03T22:01:22.965Z,39.34
2023-02-03T22:03:53.195Z,39.34
2023-02-03T22:06:24.569Z,39.36
2023-02-03T22:08:54.547Z,39.31
2023-02-03T22:11:24.115Z,39.48
2023-02-03T22:13:54.136Z,39.11
2023-02-03T22:16:22.937Z,39.39
2023-02-03T22:18:51.651Z,39.37
2023-02-03T22:21:20.610Z,39.26
2023-02-03T22:23:49.338Z,39.15
2023-02-03T22:26:18.828Z,39.34
2023-02-03T22:28:47.585Z,39.49
2023-02-03T22:31:19.896Z,39.25
2023-02-03T22:33:48.825Z,39.40
2023-02-03T22:36:17.504Z,39.47
2023-02-03T22:38:46.080Z,39.73
2023-02-03T22:41:14.832Z,39.67
2023-02-03T22:43:43.278Z,39.52
2023-02-03T22:46:12.585Z,39.31
2023-02-03T22:48:42.471Z,38.80
2023-02-03T22:51:11.091Z,39.22
2023-02-03T22:53:40.082Z,39.08
2023-02-03T22:56:09.402Z,39.18
2023-02-03T22:58:37.786Z,39.15
2023-02-03T23:01:06.765Z,39.02
2023-02-03T23:03:35.415Z,38.99
2023-02-03T23:06:05.464Z,38.99
2023-02-03T23:08:34.182Z,39.05
2023-02-03T23:11:02.966Z,38.80
2023-02-03T23:13:31.399Z,38.84
2023-02-03T23:16:00.083Z,38.81
2023-02-03T23:18:28.445Z,39.06
2023-02-03T23:20:57.380Z,38.92
2023-02-03T23:23:27.042Z,38.78
2023-02-03T23:25:55.785Z,38.64
2023-02-03T23:28:24.300Z,39.15
2023-02-03T23:30:53.033Z,39.27
2023-02-03T23:33:21.630Z,39.23
2023-02-03T23:35:50.178Z,39.41
2023-02-03T23:38:18.976Z,39.35
2023-02-03T23:40:49.368Z,38.96
2023-02-03T23:43:17.827Z,39.35
2023-02-03T23:45:46.942Z,39.16
2023-02-03T23:48:17.489Z,38.94
2023-02-03T23:50:46.434Z,38.82
2023-02-03T23:53:14.937Z,38.92
2023-02-03T23:55:43.511Z,38.71
2023-02-03T23:58:13.402Z,38.75
